createdAt,value
2023-03-23T15:57:52.962Z,1.30
2023-03-23T16:00:26.137Z,1.50
2023-03-23T16:02:59.388Z,1.50
2023-03-23T16:05:27.926Z,1.30
2023-03-23T16:07:55.344Z,1.60
2023-03-23T16:10:25.577Z,1.27
2023-03-23T16:12:52.603Z,1.40
2023-03-23T16:15:20.130Z,1.35
2023-03-23T16:17:47.871Z,2.42
2023-03-23T16:20:17.495Z,1.20
2023-03-23T16:22:44.306Z,1.05
2023-03-23T16:25:11.743Z,1.30
2023-03-23T16:27:41.227Z,1.25
2023-03-23T16:30:16.848Z,1.30
2023-03-23T16:32:44.190Z,1.35
2023-03-23T16:35:11.388Z,1.15
2023-03-23T16:37:38.946Z,1.00
2023-03-23T16:40:07.962Z,1.00
2023-03-23T16:42:35.056Z,1.20
2023-03-23T16:45:04.005Z,1.00
2023-03-23T16:47:31.148Z,1.08
2023-03-23T16:49:58.056Z,1.00
2023-03-23T16:52:25.128Z,1.25
2023-03-23T16:54:52.147Z,1.30
2023-03-23T16:57:19.514Z,1.50
2023-03-23T16:59:46.805Z,1.27
2023-03-23T17:02:15.381Z,1.20
2023-03-23T17:04:44.516Z,1.20
2023-03-23T17:07:12.201Z,1.20
2023-03-23T17:09:41.729Z,1.17
2023-03-23T17:12:10.589Z,1.27
2023-03-23T17:14:37.579Z,1.10
2023-03-23T17:17:04.496Z,1.13
2023-03-23T17:19:32.889Z,1.50
2023-03-23T17:21:59.790Z,1.48
2023-03-23T17:24:26.993Z,1.75
2023-03-23T17:26:54.004Z,1.45
2023-03-23T17:29:21.402Z,1.50
2023-03-23T17:31:48.463Z,1.63
2023-03-23T17:34:18.103Z,1.63
2023-03-23T17:36:47.119Z,1.30
2023-03-23T17:39:14.021Z,1.30
2023-03-23T17:41:40.882Z,1.13
2023-03-23T17:44:08.179Z,1.23
2023-03-23T17:46:35.275Z,1.40
2023-03-23T17:49:02.760Z,1.48
2023-03-23T17:51:29.893Z,1.20
2023-03-23T17:53:58.309Z,1.40
2023-03-23T17:56:25.363Z,1.20
2023-03-23T17:58:52.250Z,1.30
2023-03-23T18:01:19.329Z,1.30
2023-03-23T18:03:46.481Z,1.17
2023-03-23T18:06:13.505Z,1.38
2023-03-23T18:08:40.355Z,1.33
2023-03-23T18:11:08.995Z,1.67
2023-03-23T18:13:37.897Z,1.70
2023-03-23T18:16:06.955Z,1.50
2023-03-23T18:18:34.521Z,1.75
2023-03-23T18:21:05.495Z,1.70
2023-03-23T18:23:33.331Z,1.48
2023-03-23T18:26:00.353Z,1.50
2023-03-23T18:28:28.930Z,1.45
2023-03-23T18:31:02.817Z,1.63
2023-03-23T18:33:30.096Z,2.70
2023-03-23T18:35:58.481Z,1.77
2023-03-23T18:38:26.604Z,1.45
2023-03-23T18:40:53.813Z,1.65
2023-03-23T18:43:21.537Z,1.48
2023-03-23T18:45:50.890Z,1.73
2023-03-23T18:48:18.346Z,1.95
2023-03-23T18:50:47.317Z,2.17
2023-03-23T18:53:14.504Z,2.13
2023-03-23T18:55:41.793Z,1.85
2023-03-23T18:58:08.926Z,1.88
2023-03-23T19:00:35.999Z,1.98
2023-03-23T19:03:05.202Z,2.00
2023-03-23T19:05:33.095Z,1.90
2023-03-23T19:08:00.608Z,1.58
2023-03-23T19:10:27.942Z,1.50
2023-03-23T19:12:54.905Z,1.98
2023-03-23T19:15:22.481Z,1.50
2023-03-23T19:17:49.764Z,1.40
2023-03-23T19:20:37.282Z,1.70
2023-03-23T19:23:05.517Z,1.65
2023-03-23T19:25:32.672Z,1.80
2023-03-23T19:28:50.049Z,1.58
2023-03-23T19:30:48.799Z,1.55
2023-03-23T19:33:16.568Z,1.52
2023-03-23T19:35:49.577Z,2.00
2023-03-23T19:38:17.026Z,2.00
2023-03-23T19:40:51.796Z,1.92
2023-03-23T19:43:19.838Z,1.90
2023-03-23T19:45:47.169Z,1.65
2023-03-23T19:48:14.232Z,2.30
2023-03-23T19:50:41.195Z,1.67
2023-03-23T19:53:10.101Z,1.85
2023-03-23T19:55:37.039Z,1.35
2023-03-23T19:58:04.848Z,1.90
2023-03-23T20:00:34.153Z,1.73
2023-03-23T20:03:01.822Z,1.63
2023-03-23T20:05:29.350Z,1.90
2023-03-23T20:07:56.771Z,1.77
2023-03-23T20:10:25.854Z,1.75
2023-03-23T20:12:55.069Z,1.67
2023-03-23T20:15:21.993Z,2.08
2023-03-23T20:17:49.950Z,2.25
2023-03-23T20:20:17.413Z,1.67
2023-03-23T20:22:44.546Z,1.70
2023-03-23T20:25:12.250Z,1.80
2023-03-23T20:27:40.607Z,1.80
2023-03-23T20:30:08.503Z,1.75
2023-03-23T20:32:36.277Z,1.70
2023-03-23T20:35:06.105Z,1.80
2023-03-23T20:37:33.602Z,1.45
2023-03-23T20:40:01.757Z,1.73
2023-03-23T20:42:28.946Z,1.50
2023-03-23T20:44:57.804Z,1.95
2023-03-23T20:47:24.819Z,1.90
2023-03-23T20:49:52.790Z,1.85
2023-03-23T20:52:21.314Z,1.60
2023-03-23T20:54:48.635Z,1.60
2023-03-23T20:57:15.658Z,1.67
2023-03-23T20:59:42.647Z,1.83
2023-03-23T21:02:16.304Z,1.70
2023-03-23T21:04:44.200Z,1.92
2023-03-23T21:07:11.968Z,2.03
2023-03-23T21:09:39.098Z,2.20
2023-03-23T21:12:06.718Z,2.10
2023-03-23T21:14:34.180Z,2.05
2023-03-23T21:17:01.481Z,1.80
2023-03-23T21:19:30.614Z,1.90
2023-03-23T21:21:58.210Z,2.03
2023-03-23T21:24:27.529Z,2.28
2023-03-23T21:26:56.342Z,2.00
2023-03-23T21:29:23.466Z,2.28
2023-03-23T21:31:57.792Z,2.30
2023-03-23T21:34:34.263Z,2.20
2023-03-23T21:37:01.809Z,2.20
2023-03-23T21:39:28.646Z,2.22
2023-03-23T21:41:55.852Z,2.28
2023-03-23T21:44:23.408Z,2.60
2023-03-23T21:46:50.354Z,2.55
2023-03-23T21:49:17.248Z,3.03
2023-03-23T21:51:45.614Z,3.13
2023-03-23T21:54:12.493Z,2.83
2023-03-23T21:56:39.769Z,3.08
2023-03-23T21:59:06.733Z,3.03
2023-03-23T22:01:34.578Z,3.00
2023-03-23T22:04:01.621Z,3.53
2023-03-23T22:06:28.682Z,3.22
2023-03-23T22:08:57.229Z,3.63
2023-03-23T22:11:28.194Z,3.50
2023-03-23T22:13:57.303Z,3.80
2023-03-23T22:16:25.371Z,3.88
2023-03-23T22:18:53.618Z,3.75
2023-03-23T22:21:22.351Z,3.78
2023-03-23T22:23:49.855Z,3.97
2023-03-23T22:26:19.793Z,3.92
2023-03-23T22:28:48.418Z,3.92
2023-03-23T22:31:19.535Z,3.85
2023-03-23T22:33:48.113Z,4.05
2023-03-23T22:36:16.152Z,4.43
2023-03-23T22:38:46.466Z,3.55
2023-03-23T22:41:19.401Z,4.03
2023-03-23T22:43:48.219Z,4.15
2023-03-23T22:46:16.007Z,4.25
2023-03-23T22:48:43.942Z,4.47
2023-03-23T22:51:13.955Z,4.28
2023-03-23T22:53:41.252Z,4.32
2023-03-23T22:56:09.846Z,4.50
2023-03-23T22:58:38.936Z,4.55
2023-03-23T23:01:11.440Z,4.22
2023-03-23T23:03:38.774Z,4.72
2023-03-23T23:06:09.639Z,4.32
2023-03-23T23:08:38.110Z,4.82
2023-03-23T23:11:06.424Z,4.80
2023-03-23T23:16:26.616Z,4.50
2023-03-23T23:18:55.201Z,4.70
2023-03-23T23:21:25.003Z,4.70
2023-03-23T23:23:53.600Z,4.53
2023-03-23T23:26:21.404Z,4.45
2023-03-23T23:28:49.512Z,4.90
2023-03-23T23:31:21.569Z,5.25
2023-03-23T23:33:50.551Z,4.60
2023-03-23T23:36:17.817Z,4.47
2023-03-23T23:38:44.755Z,4.70
2023-03-23T23:41:11.892Z,4.40
2023-03-23T23:43:39.360Z,4.65
2023-03-23T23:46:06.899Z,5.00
2023-03-23T23:48:34.149Z,4.68
2023-03-23T23:51:02.546Z,4.50
2023-03-23T23:53:29.556Z,4.40
2023-03-23T23:55:56.687Z,4.35
2023-03-23T23:58:24.135Z,3.92
